sensor_id;sensor_type;location;lat;lon;timestamp;pressure;altitude;pressure_sealevel;temperature;humidity
12963;BME280;6546;49.882;8.666;2023-08-21T00:00:30;100531.59;;;24.30;67.66
12963;BME280;6546;49.882;8.666;2023-08-21T00:02:57;100518.28;;;24.25;67.78
12963;BME280;6546;49.882;8.666;2023-08-21T00:05:23;100518.75;;;24.22;68.08
12963;BME280;6546;49.882;8.666;2023-08-21T00:07:50;100517.00;;;24.27;67.41
12963;BME280;6546;49.882;8.666;2023-08-21T00:10:17;100524.38;;;24.25;67.43
12963;BME280;6546;49.882;8.666;2023-08-21T00:12:43;100523.91;;;24.28;67.54
12963;BME280;6546;49.882;8.666;2023-08-21T00:15:11;100523.91;;;24.28;67.68
12963;BME280;6546;49.882;8.666;2023-08-21T00:17:38;100509.78;;;24.23;67.37
12963;BME280;6546;49.882;8.666;2023-08-21T00:20:05;100516.50;;;24.30;67.36
12963;BME280;6546;49.882;8.666;2023-08-21T00:22:34;100515.41;;;24.26;67.73
12963;BME280;6546;49.882;8.666;2023-08-21T00:25:01;100515.63;;;24.25;67.47
12963;BME280;6546;49.882;8.666;2023-08-21T00:27:28;100517.72;;;24.23;67.84
12963;BME280;6546;49.882;8.666;2023-08-21T00:29:54;100514.03;;;24.24;67.79
12963;BME280;6546;49.882;8.666;2023-08-21T00:32:22;100511.63;;;24.22;67.86
12963;BME280;6546;49.882;8.666;2023-08-21T00:34:49;100507.22;;;24.28;67.67
12963;BME280;6546;49.882;8.666;2023-08-21T00:37:15;100504.00;;;24.26;67.59
12963;BME280;6546;49.882;8.666;2023-08-21T00:39:42;100505.75;;;24.20;67.44
12963;BME280;6546;49.882;8.666;2023-08-21T00:42:08;100509.16;;;24.16;67.75
12963;BME280;6546;49.882;8.666;2023-08-21T00:44:35;100507.03;;;24.18;67.52
12963;BME280;6546;49.882;8.666;2023-08-21T00:47:01;100509.63;;;24.13;67.65
12963;BME280;6546;49.882;8.666;2023-08-21T00:49:30;100498.72;;;23.97;68.29
12963;BME280;6546;49.882;8.666;2023-08-21T00:51:58;100503.28;;;23.85;69.00
12963;BME280;6546;49.882;8.666;2023-08-21T00:54:25;100501.13;;;23.82;69.02
12963;BME280;6546;49.882;8.666;2023-08-21T00:56:52;100499.69;;;23.75;69.57
12963;BME280;6546;49.882;8.666;2023-08-21T00:59:19;100501.34;;;23.64;69.63
12963;BME280;6546;49.882;8.666;2023-08-21T01:01:46;100509.63;;;23.56;70.20
12963;BME280;6546;49.882;8.666;2023-08-21T01:04:12;100503.31;;;23.57;70.19
12963;BME280;6546;49.882;8.666;2023-08-21T01:06:40;100500.19;;;23.60;70.42
12963;BME280;6546;49.882;8.666;2023-08-21T01:09:13;100494.59;;;23.57;70.34
12963;BME280;6546;49.882;8.666;2023-08-21T01:11:49;100508.22;;;23.65;70.14
12963;BME280;6546;49.882;8.666;2023-08-21T01:14:22;100506.63;;;23.64;70.04
12963;BME280;6546;49.882;8.666;2023-08-21T01:17:03;100501.34;;;23.64;70.23
12963;BME280;6546;49.882;8.666;2023-08-21T01:19:39;100508.13;;;23.60;70.29
12963;BME280;6546;49.882;8.666;2023-08-21T01:22:09;100512.06;;;23.58;70.38
12963;BME280;6546;49.882;8.666;2023-08-21T01:24:40;100513.00;;;23.51;70.82
12963;BME280;6546;49.882;8.666;2023-08-21T01:27:10;100511.06;;;23.47;70.80
12963;BME280;6546;49.882;8.666;2023-08-21T01:29:37;100516.09;;;23.37;71.54
12963;BME280;6546;49.882;8.666;2023-08-21T01:32:09;100512.47;;;23.26;71.71
12963;BME280;6546;49.882;8.666;2023-08-21T01:34:37;100520.53;;;23.20;71.98
12963;BME280;6546;49.882;8.666;2023-08-21T01:37:04;100515.56;;;23.23;72.13
12963;BME280;6546;49.882;8.666;2023-08-21T01:39:32;100513.84;;;23.29;72.21
12963;BME280;6546;49.882;8.666;2023-08-21T01:42:00;100505.44;;;23.32;71.86
12963;BME280;6546;49.882;8.666;2023-08-21T01:44:27;100509.69;;;23.33;71.59
12963;BME280;6546;49.882;8.666;2023-08-21T01:46:53;100501.78;;;23.21;71.98
12963;BME280;6546;49.882;8.666;2023-08-21T01:49:20;100495.03;;;23.14;72.20
12963;BME280;6546;49.882;8.666;2023-08-21T01:51:47;100517.44;;;23.23;71.87
12963;BME280;6546;49.882;8.666;2023-08-21T01:54:13;100514.13;;;23.16;72.53
12963;BME280;6546;49.882;8.666;2023-08-21T01:56:40;100517.31;;;23.18;72.34
12963;BME280;6546;49.882;8.666;2023-08-21T01:59:08;100517.78;;;23.15;72.72
12963;BME280;6546;49.882;8.666;2023-08-21T02:01:34;100520.66;;;23.13;73.25
12963;BME280;6546;49.882;8.666;2023-08-21T02:04:01;100522.03;;;23.16;73.22
12963;BME280;6546;49.882;8.666;2023-08-21T02:06:27;100523.53;;;23.12;73.17
12963;BME280;6546;49.882;8.666;2023-08-21T02:08:54;100519.97;;;23.18;72.84
12963;BME280;6546;49.882;8.666;2023-08-21T02:11:21;100524.91;;;23.14;73.35
12963;BME280;6546;49.882;8.666;2023-08-21T02:13:47;100521.91;;;23.11;73.52
12963;BME280;6546;49.882;8.666;2023-08-21T02:16:15;100529.28;;;23.09;73.38
12963;BME280;6546;49.882;8.666;2023-08-21T02:18:41;100515.97;;;23.04;73.17
12963;BME280;6546;49.882;8.666;2023-08-21T02:21:08;100518.81;;;23.14;72.86
12963;BME280;6546;49.882;8.666;2023-08-21T02:23:35;100525.94;;;23.13;73.05
12963;BME280;6546;49.882;8.666;2023-08-21T02:26:01;100518.47;;;23.22;72.75
12963;BME280;6546;49.882;8.666;2023-08-21T02:28:28;100521.09;;;23.22;72.75
12963;BME280;6546;49.882;8.666;2023-08-21T02:30:54;100522.72;;;23.11;73.31
12963;BME280;6546;49.882;8.666;2023-08-21T02:33:22;100520.78;;;23.07;73.31
12963;BME280;6546;49.882;8.666;2023-08-21T02:35:49;100530.09;;;23.09;73.23
12963;BME280;6546;49.882;8.666;2023-08-21T02:38:16;100528.72;;;22.95;73.57
12963;BME280;6546;49.882;8.666;2023-08-21T02:40:43;100527.81;;;22.89;74.17
12963;BME280;6546;49.882;8.666;2023-08-21T02:43:09;100526.78;;;22.90;73.94
12963;BME280;6546;49.882;8.666;2023-08-21T02:45:36;100534.94;;;22.89;74.67
12963;BME280;6546;49.882;8.666;2023-08-21T02:48:03;100528.28;;;22.86;74.65
12963;BME280;6546;49.882;8.666;2023-08-21T02:50:31;100530.91;;;22.86;74.42
12963;BME280;6546;49.882;8.666;2023-08-21T02:52:58;100534.59;;;22.85;74.58
12963;BME280;6546;49.882;8.666;2023-08-21T02:55:24;100537.13;;;22.80;75.26
12963;BME280;6546;49.882;8.666;2023-08-21T02:57:51;100528.63;;;22.78;75.38
12963;BME280;6546;49.882;8.666;2023-08-21T03:00:17;100529.06;;;22.75;75.42
12963;BME280;6546;49.882;8.666;2023-08-21T03:02:44;100523.22;;;22.73;75.37
12963;BME280;6546;49.882;8.666;2023-08-21T03:05:11;100522.66;;;22.71;75.09
12963;BME280;6546;49.882;8.666;2023-08-21T03:07:40;100526.78;;;22.67;75.56
12963;BME280;6546;49.882;8.666;2023-08-21T03:10:07;100523.44;;;22.72;75.27
12963;BME280;6546;49.882;8.666;2023-08-21T03:12:34;100526.56;;;22.80;74.76
12963;BME280;6546;49.882;8.666;2023-08-21T03:15:01;100532.97;;;22.84;74.24
12963;BME280;6546;49.882;8.666;2023-08-21T03:17:28;100530.31;;;22.84;74.06
12963;BME280;6546;49.882;8.666;2023-08-21T03:19:54;100531.25;;;22.78;74.55
12963;BME280;6546;49.882;8.666;2023-08-21T03:22:21;100528.28;;;22.75;74.54
12963;BME280;6546;49.882;8.666;2023-08-21T03:24:49;100540.78;;;22.79;74.69
12963;BME280;6546;49.882;8.666;2023-08-21T03:27:16;100532.78;;;22.74;74.54
12963;BME280;6546;49.882;8.666;2023-08-21T03:29:42;100531.69;;;22.64;74.85
12963;BME280;6546;49.882;8.666;2023-08-21T03:32:14;100535.00;;;22.59;75.06
12963;BME280;6546;49.882;8.666;2023-08-21T03:34:40;100535.94;;;22.53;75.13
12963;BME280;6546;49.882;8.666;2023-08-21T03:37:07;100528.94;;;22.59;75.38
12963;BME280;6546;49.882;8.666;2023-08-21T03:39:33;100538.09;;;22.56;75.09
12963;BME280;6546;49.882;8.666;2023-08-21T03:42:01;100533.88;;;22.55;75.01
12963;BME280;6546;49.882;8.666;2023-08-21T03:44:28;100546.13;;;22.49;75.43
12963;BME280;6546;49.882;8.666;2023-08-21T03:46:54;100541.09;;;22.48;75.19
12963;BME280;6546;49.882;8.666;2023-08-21T03:49:21;100536.28;;;22.45;75.08
12963;BME280;6546;49.882;8.666;2023-08-21T03:51:47;100541.41;;;22.40;75.53
12963;BME280;6546;49.882;8.666;2023-08-21T03:54:14;100536.50;;;22.43;75.09
12963;BME280;6546;49.882;8.666;2023-08-21T03:56:40;100537.19;;;22.39;75.13
12963;BME280;6546;49.882;8.666;2023-08-21T03:59:09;100545.22;;;22.44;75.31
12963;BME280;6546;49.882;8.666;2023-08-21T04:01:36;100543.59;;;22.43;74.71
12963;BME280;6546;49.882;8.666;2023-08-21T04:04:03;100548.19;;;22.36;75.49
12963;BME280;6546;49.882;8.666;2023-08-21T04:06:30;100526.59;;;22.27;75.51
12963;BME280;6546;49.882;8.666;2023-08-21T04:08:56;100555.22;;;22.42;75.40
12963;BME280;6546;49.882;8.666;2023-08-21T04:11:23;100556.22;;;22.41;74.93
12963;BME280;6546;49.882;8.666;2023-08-21T04:13:49;100547.50;;;22.40;74.99
12963;BME280;6546;49.882;8.666;2023-08-21T04:16:17;100547.50;;;22.40;75.00
12963;BME280;6546;49.882;8.666;2023-08-21T04:18:46;100554.75;;;22.45;74.83
12963;BME280;6546;49.882;8.666;2023-08-21T04:21:13;100553.59;;;22.41;74.47
12963;BME280;6546;49.882;8.666;2023-08-21T04:23:41;100553.34;;;22.42;74.50
12963;BME280;6546;49.882;8.666;2023-08-21T04:26:08;100552.94;;;22.45;74.62
12963;BME280;6546;49.882;8.666;2023-08-21T04:28:36;100551.53;;;22.43;74.57
12963;BME280;6546;49.882;8.666;2023-08-21T04:31:04;100556.94;;;22.48;74.17
12963;BME280;6546;49.882;8.666;2023-08-21T04:33:32;100555.88;;;22.49;74.31
12963;BME280;6546;49.882;8.666;2023-08-21T04:35:59;100558.97;;;22.46;74.65
12963;BME280;6546;49.882;8.666;2023-08-21T04:38:26;100560.94;;;22.39;74.74
12963;BME280;6546;49.882;8.666;2023-08-21T04:40:53;100563.44;;;22.34;75.03
12963;BME280;6546;49.882;8.666;2023-08-21T04:43:19;100557.81;;;22.30;75.45
12963;BME280;6546;49.882;8.666;2023-08-21T04:45:47;100562.28;;;22.30;75.42
12963;BME280;6546;49.882;8.666;2023-08-21T04:48:14;100560.91;;;22.27;75.68
12963;BME280;6546;49.882;8.666;2023-08-21T04:50:42;100559.06;;;22.28;75.73
12963;BME280;6546;49.882;8.666;2023-08-21T04:53:09;100565.72;;;22.30;75.83
12963;BME280;6546;49.882;8.666;2023-08-21T04:55:36;100563.69;;;22.32;75.83
12963;BME280;6546;49.882;8.666;2023-08-21T04:58:02;100569.19;;;22.31;75.55
12963;BME280;6546;49.882;8.666;2023-08-21T05:00:29;100571.38;;;22.34;75.75
12963;BME280;6546;49.882;8.666;2023-08-21T05:02:56;100576.31;;;22.42;74.79
12963;BME280;6546;49.882;8.666;2023-08-21T05:05:22;100570.34;;;22.35;75.45
12963;BME280;6546;49.882;8.666;2023-08-21T05:07:51;100580.75;;;22.30;75.65
12963;BME280;6546;49.882;8.666;2023-08-21T05:10:18;100577.09;;;22.31;75.63
12963;BME280;6546;49.882;8.666;2023-08-21T05:12:45;100578.81;;;22.37;75.58
12963;BME280;6546;49.882;8.666;2023-08-21T05:15:11;100574.91;;;22.28;75.43
12963;BME280;6546;49.882;8.666;2023-08-21T05:17:38;100582.84;;;22.39;75.30
12963;BME280;6546;49.882;8.666;2023-08-21T05:20:05;100584.59;;;22.45;74.98
12963;BME280;6546;49.882;8.666;2023-08-21T05:22:32;100590.66;;;22.46;74.42
12963;BME280;6546;49.882;8.666;2023-08-21T05:25:00;100590.53;;;22.41;74.64
12963;BME280;6546;49.882;8.666;2023-08-21T05:27:26;100591.56;;;22.40;75.04
12963;BME280;6546;49.882;8.666;2023-08-21T05:29:53;100598.56;;;22.46;75.05
12963;BME280;6546;49.882;8.666;2023-08-21T05:32:19;100593.06;;;22.47;74.91
12963;BME280;6546;49.882;8.666;2023-08-21T05:34:46;100594.59;;;22.55;74.32
12963;BME280;6546;49.882;8.666;2023-08-21T05:37:13;100592.06;;;22.48;74.39
12963;BME280;6546;49.882;8.666;2023-08-21T05:39:39;100604.56;;;22.53;74.58
12963;BME280;6546;49.882;8.666;2023-08-21T05:42:07;100605.38;;;22.54;74.00
12963;BME280;6546;49.882;8.666;2023-08-21T05:44:34;100604.34;;;22.55;74.13
12963;BME280;6546;49.882;8.666;2023-08-21T05:47:00;100599.53;;;22.63;74.38
12963;BME280;6546;49.882;8.666;2023-08-21T05:49:27;100604.38;;;22.66;74.06
12963;BME280;6546;49.882;8.666;2023-08-21T05:51:55;100609.34;;;22.74;73.88
12963;BME280;6546;49.882;8.666;2023-08-21T05:54:24;100609.56;;;22.73;73.68
12963;BME280;6546;49.882;8.666;2023-08-21T05:56:51;100611.16;;;22.74;73.63
12963;BME280;6546;49.882;8.666;2023-08-21T05:59:29;100605.41;;;23.23;71.94
12963;BME280;6546;49.882;8.666;2023-08-21T06:01:56;100602.75;;;24.43;68.90
12963;BME280;6546;49.882;8.666;2023-08-21T06:04:22;100609.88;;;25.26;64.13
12963;BME280;6546;49.882;8.666;2023-08-21T06:06:49;100609.66;;;26.19;60.59
12963;BME280;6546;49.882;8.666;2023-08-21T06:09:15;100608.28;;;27.12;57.52
12963;BME280;6546;49.882;8.666;2023-08-21T06:11:43;100614.78;;;28.03;54.09
12963;BME280;6546;49.882;8.666;2023-08-21T06:14:10;100619.34;;;28.89;51.38
12963;BME280;6546;49.882;8.666;2023-08-21T06:16:38;100617.19;;;29.80;48.94
12963;BME280;6546;49.882;8.666;2023-08-21T06:19:05;100615.25;;;30.35;47.56
12963;BME280;6546;49.882;8.666;2023-08-21T06:21:31;100617.91;;;30.73;46.17
12963;BME280;6546;49.882;8.666;2023-08-21T06:23:58;100611.81;;;30.68;46.03
12963;BME280;6546;49.882;8.666;2023-08-21T06:26:24;100614.91;;;30.80;45.74
12963;BME280;6546;49.882;8.666;2023-08-21T06:28:51;100621.38;;;30.45;46.03
12963;BME280;6546;49.882;8.666;2023-08-21T06:31:19;100618.03;;;29.76;47.93
12963;BME280;6546;49.882;8.666;2023-08-21T06:33:47;100609.50;;;28.89;50.15
12963;BME280;6546;49.882;8.666;2023-08-21T06:36:14;100603.66;;;28.37;51.69
12963;BME280;6546;49.882;8.666;2023-08-21T06:38:40;100612.72;;;28.36;52.35
12963;BME280;6546;49.882;8.666;2023-08-21T06:41:07;100618.03;;;28.51;52.36
12963;BME280;6546;49.882;8.666;2023-08-21T06:43:33;100616.97;;;28.87;51.48
12963;BME280;6546;49.882;8.666;2023-08-21T06:46:01;100630.00;;;29.09;50.39
12963;BME280;6546;49.882;8.666;2023-08-21T06:48:27;100626.00;;;29.27;50.83
12963;BME280;6546;49.882;8.666;2023-08-21T06:50:55;100614.78;;;29.25;50.09
12963;BME280;6546;49.882;8.666;2023-08-21T06:53:22;100632.31;;;29.46;49.29
12963;BME280;6546;49.882;8.666;2023-08-21T06:55:48;100624.09;;;29.96;47.96
12963;BME280;6546;49.882;8.666;2023-08-21T06:58:15;100621.13;;;30.70;46.11
12963;BME280;6546;49.882;8.666;2023-08-21T07:00:42;100623.91;;;31.18;45.18
12963;BME280;6546;49.882;8.666;2023-08-21T07:03:08;100626.47;;;30.76;45.68
12963;BME280;6546;49.882;8.666;2023-08-21T07:05:35;100627.38;;;30.61;46.16
12963;BME280;6546;49.882;8.666;2023-08-21T07:08:03;100621.78;;;30.24;46.81
12963;BME280;6546;49.882;8.666;2023-08-21T07:10:35;100628.78;;;30.14;47.57
12963;BME280;6546;49.882;8.666;2023-08-21T07:13:02;100624.63;;;29.93;48.04
12963;BME280;6546;49.882;8.666;2023-08-21T07:15:29;100635.38;;;29.73;48.92
12963;BME280;6546;49.882;8.666;2023-08-21T07:17:56;100629.19;;;29.34;49.51
12963;BME280;6546;49.882;8.666;2023-08-21T07:20:22;100632.41;;;29.05;50.47
12963;BME280;6546;49.882;8.666;2023-08-21T07:22:49;100609.53;;;28.59;51.70
12963;BME280;6546;49.882;8.666;2023-08-21T07:25:17;100627.34;;;28.28;53.34
12963;BME280;6546;49.882;8.666;2023-08-21T07:27:43;100617.38;;;27.78;54.12
12963;BME280;6546;49.882;8.666;2023-08-21T07:30:10;100612.00;;;27.63;55.22
12963;BME280;6546;49.882;8.666;2023-08-21T07:32:37;100609.84;;;27.60;56.11
12963;BME280;6546;49.882;8.666;2023-08-21T07:35:05;100620.25;;;27.61;56.31
12963;BME280;6546;49.882;8.666;2023-08-21T07:37:31;100613.09;;;27.77;56.39
12963;BME280;6546;49.882;8.666;2023-08-21T07:39:58;100604.53;;;27.60;56.25
12963;BME280;6546;49.882;8.666;2023-08-21T07:42:26;100601.34;;;27.58;56.49
12963;BME280;6546;49.882;8.666;2023-08-21T07:44:53;100602.09;;;27.48;56.70
12963;BME280;6546;49.882;8.666;2023-08-21T07:47:19;100605.56;;;27.54;56.73
12963;BME280;6546;49.882;8.666;2023-08-21T07:49:46;100606.38;;;27.49;56.90
12963;BME280;6546;49.882;8.666;2023-08-21T07:52:12;100608.50;;;27.52;57.54
12963;BME280;6546;49.882;8.666;2023-08-21T07:54:41;100611.13;;;27.47;57.84
12963;BME280;6546;49.882;8.666;2023-08-21T07:57:07;100614.53;;;27.38;57.25
12963;BME280;6546;49.882;8.666;2023-08-21T07:59:35;100607.28;;;27.28;58.00
12963;BME280;6546;49.882;8.666;2023-08-21T08:02:02;100613.41;;;27.29;58.99
12963;BME280;6546;49.882;8.666;2023-08-21T08:04:29;100611.22;;;27.21;58.96
12963;BME280;6546;49.882;8.666;2023-08-21T08:06:56;100605.44;;;27.29;58.66
12963;BME280;6546;49.882;8.666;2023-08-21T08:09:23;100608.69;;;27.41;59.22
12963;BME280;6546;49.882;8.666;2023-08-21T08:11:50;100605.56;;;27.54;58.88
12963;BME280;6546;49.882;8.666;2023-08-21T08:14:17;100617.81;;;27.55;58.90
12963;BME280;6546;49.882;8.666;2023-08-21T08:16:44;100609.56;;;27.56;58.85
12963;BME280;6546;49.882;8.666;2023-08-21T08:19:11;100611.72;;;27.59;58.31
12963;BME280;6546;49.882;8.666;2023-08-21T08:21:38;100614.59;;;27.48;58.82
12963;BME280;6546;49.882;8.666;2023-08-21T08:24:05;100610.63;;;27.50;58.92
12963;BME280;6546;49.882;8.666;2023-08-21T08:26:31;100609.28;;;27.53;59.34
12963;BME280;6546;49.882;8.666;2023-08-21T08:28:58;100614.41;;;27.64;58.73
12963;BME280;6546;49.882;8.666;2023-08-21T08:31:24;100608.28;;;27.59;58.23
12963;BME280;6546;49.882;8.666;2023-08-21T08:33:54;100616.78;;;27.61;58.40
12963;BME280;6546;49.882;8.666;2023-08-21T08:36:20;100604.53;;;27.60;58.19
12963;BME280;6546;49.882;8.666;2023-08-21T08:38:47;100607.47;;;27.63;58.01
12963;BME280;6546;49.882;8.666;2023-08-21T08:41:21;100599.78;;;27.67;57.68
12963;BME280;6546;49.882;8.666;2023-08-21T08:43:50;100613.09;;;27.72;59.16
12963;BME280;6546;49.882;8.666;2023-08-21T08:46:18;100605.13;;;27.77;57.66
12963;BME280;6546;49.882;8.666;2023-08-21T08:48:45;100608.31;;;27.79;58.29
12963;BME280;6546;49.882;8.666;2023-08-21T08:51:13;100610.19;;;27.84;57.48
12963;BME280;6546;49.882;8.666;2023-08-21T08:53:40;100603.53;;;27.86;58.30
12963;BME280;6546;49.882;8.666;2023-08-21T08:56:08;100606.22;;;27.96;58.15
12963;BME280;6546;49.882;8.666;2023-08-21T08:58:35;100602.50;;;28.02;58.12
12963;BME280;6546;49.882;8.666;2023-08-21T09:01:01;100603.34;;;28.08;58.78
12963;BME280;6546;49.882;8.666;2023-08-21T09:03:28;100603.09;;;28.09;58.30
12963;BME280;6546;49.882;8.666;2023-08-21T09:05:55;100604.69;;;28.10;57.92
12963;BME280;6546;49.882;8.666;2023-08-21T09:08:26;100599.91;;;28.17;58.13
12963;BME280;6546;49.882;8.666;2023-08-21T09:10:53;100600.97;;;28.32;59.03
12963;BME280;6546;49.882;8.666;2023-08-21T09:13:20;100595.66;;;28.42;58.25
12963;BME280;6546;49.882;8.666;2023-08-21T09:15:48;100595.91;;;28.50;58.06
12963;BME280;6546;49.882;8.666;2023-08-21T09:18:15;100600.72;;;28.58;57.35
12963;BME280;6546;49.882;8.666;2023-08-21T09:20:42;100600.19;;;28.66;58.47
12963;BME280;6546;49.882;8.666;2023-08-21T09:23:13;100590.03;;;28.63;56.64
12963;BME280;6546;49.882;8.666;2023-08-21T09:25:41;100591.66;;;28.49;55.75
12963;BME280;6546;49.882;8.666;2023-08-21T09:28:09;100586.06;;;28.51;56.61
12963;BME280;6546;49.882;8.666;2023-08-21T09:30:49;100582.59;;;28.50;55.32
12963;BME280;6546;49.882;8.666;2023-08-21T09:33:19;100588.72;;;28.51;54.53
12963;BME280;6546;49.882;8.666;2023-08-21T09:35:48;100589.25;;;28.58;54.49
12963;BME280;6546;49.882;8.666;2023-08-21T09:38:15;100588.47;;;28.67;55.69
12963;BME280;6546;49.882;8.666;2023-08-21T09:40:50;100575.66;;;28.70;54.13
12963;BME280;6546;49.882;8.666;2023-08-21T09:43:17;100586.31;;;28.85;54.50
12963;BME280;6546;49.882;8.666;2023-08-21T09:45:46;100584.47;;;28.65;51.79
12963;BME280;6546;49.882;8.666;2023-08-21T09:48:13;100584.47;;;28.65;51.42
12963;BME280;6546;49.882;8.666;2023-08-21T09:50:40;100584.47;;;28.70;51.41
12963;BME280;6546;49.882;8.666;2023-08-21T09:53:07;100587.94;;;28.81;52.40
12963;BME280;6546;49.882;8.666;2023-08-21T09:55:34;100587.41;;;28.69;51.41
12963;BME280;6546;49.882;8.666;2023-08-21T09:58:03;100580.47;;;28.62;52.35
12963;BME280;6546;49.882;8.666;2023-08-21T10:00:31;100579.69;;;28.67;51.78
12963;BME280;6546;49.882;8.666;2023-08-21T10:03:01;100575.41;;;28.56;49.87
12963;BME280;6546;49.882;8.666;2023-08-21T10:05:29;100581.81;;;28.70;50.76
12963;BME280;6546;49.882;8.666;2023-08-21T10:07:59;100584.97;;;28.92;51.32
12963;BME280;6546;49.882;8.666;2023-08-21T10:10:27;100583.91;;;28.83;51.02
12963;BME280;6546;49.882;8.666;2023-08-21T10:12:54;100575.94;;;28.73;50.43
12963;BME280;6546;49.882;8.666;2023-08-21T10:15:22;100586.31;;;28.90;50.50
12963;BME280;6546;49.882;8.666;2023-08-21T10:17:49;100577.50;;;28.89;49.95
12963;BME280;6546;49.882;8.666;2023-08-21T10:20:21;100571.09;;;28.90;50.39
12963;BME280;6546;49.882;8.666;2023-08-21T10:22:49;100575.91;;;28.93;49.80
12963;BME280;6546;49.882;8.666;2023-08-21T10:25:17;100576.97;;;28.92;49.76
12963;BME280;6546;49.882;8.666;2023-08-21T10:27:46;100568.94;;;29.02;50.28
12963;BME280;6546;49.882;8.666;2023-08-21T10:30:20;100568.38;;;29.05;48.55
12963;BME280;6546;49.882;8.666;2023-08-21T10:32:50;100564.16;;;28.99;47.82
12963;BME280;6546;49.882;8.666;2023-08-21T10:35:19;100568.97;;;28.97;45.05
12963;BME280;6546;49.882;8.666;2023-08-21T10:38:05;100562.53;;;28.98;44.19
12963;BME280;6546;49.882;8.666;2023-08-21T10:40:33;100565.75;;;29.00;44.00
12963;BME280;6546;49.882;8.666;2023-08-21T10:43:00;100559.34;;;29.01;41.03
12963;BME280;6546;49.882;8.666;2023-08-21T10:45:28;100563.63;;;28.97;40.12
12963;BME280;6546;49.882;8.666;2023-08-21T10:47:57;100561.72;;;29.03;38.94
12963;BME280;6546;49.882;8.666;2023-08-21T10:50:24;100552.69;;;29.04;40.20
12963;BME280;6546;49.882;8.666;2023-08-21T10:52:52;100548.13;;;29.09;40.96
12963;BME280;6546;49.882;8.666;2023-08-21T10:55:19;100542.78;;;29.09;42.13
12963;BME280;6546;49.882;8.666;2023-08-21T10:57:47;100554.81;;;28.97;43.69
12963;BME280;6546;49.882;8.666;2023-08-21T11:00:15;100556.47;;;28.88;45.27
12963;BME280;6546;49.882;8.666;2023-08-21T11:02:44;100554.03;;;28.86;45.41
12963;BME280;6546;49.882;8.666;2023-08-21T11:05:13;100556.72;;;28.91;45.11
12963;BME280;6546;49.882;8.666;2023-08-21T11:07:42;100552.41;;;29.00;45.38
12963;BME280;6546;49.882;8.666;2023-08-21T11:10:10;100539.59;;;29.07;45.35
12963;BME280;6546;49.882;8.666;2023-08-21T11:12:37;100541.13;;;29.18;45.88
12963;BME280;6546;49.882;8.666;2023-08-21T11:15:05;100537.16;;;29.16;45.00
12963;BME280;6546;49.882;8.666;2023-08-21T11:17:32;100535.53;;;29.20;45.92
12963;BME280;6546;49.882;8.666;2023-08-21T11:20:00;100535.53;;;29.25;44.68
12963;BME280;6546;49.882;8.666;2023-08-21T11:22:32;100534.19;;;29.23;44.50
12963;BME280;6546;49.882;8.666;2023-08-21T11:24:58;100548.06;;;29.19;45.72
12963;BME280;6546;49.882;8.666;2023-08-21T11:27:25;100548.06;;;29.14;45.07
12963;BME280;6546;49.882;8.666;2023-08-21T11:29:52;100529.13;;;29.21;45.07
12963;BME280;6546;49.882;8.666;2023-08-21T11:32:20;100528.31;;;29.31;43.70
12963;BME280;6546;49.882;8.666;2023-08-21T11:34:51;100540.59;;;29.22;43.69
12963;BME280;6546;49.882;8.666;2023-08-21T11:37:18;100536.84;;;29.33;43.98
12963;BME280;6546;49.882;8.666;2023-08-21T11:39:48;100540.03;;;29.35;44.16
12963;BME280;6546;49.882;8.666;2023-08-21T11:42:16;100537.34;;;29.35;43.48
12963;BME280;6546;49.882;8.666;2023-08-21T11:44:44;100535.44;;;29.45;43.62
12963;BME280;6546;49.882;8.666;2023-08-21T11:47:12;100521.28;;;29.50;43.14
12963;BME280;6546;49.882;8.666;2023-08-21T11:49:40;100527.16;;;29.47;42.48
12963;BME280;6546;49.882;8.666;2023-08-21T11:52:08;100532.47;;;29.47;42.27
12963;BME280;6546;49.882;8.666;2023-08-21T11:54:35;100523.91;;;29.55;42.62
12963;BME280;6546;49.882;8.666;2023-08-21T11:57:07;100522.31;;;29.54;41.68
12963;BME280;6546;49.882;8.666;2023-08-21T11:59:35;100532.44;;;29.57;41.36
12963;BME280;6546;49.882;8.666;2023-08-21T12:02:08;100531.38;;;29.58;40.61
12963;BME280;6546;49.882;8.666;2023-08-21T12:04:35;100527.09;;;29.57;40.75
12963;BME280;6546;49.882;8.666;2023-08-21T12:07:02;100518.53;;;29.60;40.58
12963;BME280;6546;49.882;8.666;2023-08-21T12:09:29;100529.19;;;29.65;40.17
12963;BME280;6546;49.882;8.666;2023-08-21T12:11:56;100517.47;;;29.61;40.03
12963;BME280;6546;49.882;8.666;2023-08-21T12:14:24;100513.97;;;29.65;39.82
12963;BME280;6546;49.882;8.666;2023-08-21T12:16:51;100514.53;;;29.62;39.45
12963;BME280;6546;49.882;8.666;2023-08-21T12:19:18;100510.81;;;29.58;40.22
12963;BME280;6546;49.882;8.666;2023-08-21T12:21:45;100517.47;;;29.61;39.11
12963;BME280;6546;49.882;8.666;2023-08-21T12:24:11;100513.25;;;29.55;38.14
12963;BME280;6546;49.882;8.666;2023-08-21T12:26:38;100511.06;;;29.57;38.66
12963;BME280;6546;49.882;8.666;2023-08-21T12:29:06;100508.41;;;29.62;38.49
12963;BME280;6546;49.882;8.666;2023-08-21T12:31:34;100505.16;;;29.65;39.23
12963;BME280;6546;49.882;8.666;2023-08-21T12:34:02;100503.44;;;29.79;40.05
12963;BME280;6546;49.882;8.666;2023-08-21T12:36:28;100501.88;;;29.78;37.71
12963;BME280;6546;49.882;8.666;2023-08-21T12:38:55;100500.78;;;29.79;38.28
12963;BME280;6546;49.882;8.666;2023-08-21T12:41:22;100496.28;;;29.75;38.00
12963;BME280;6546;49.882;8.666;2023-08-21T12:43:48;100496.53;;;29.78;38.48
12963;BME280;6546;49.882;8.666;2023-08-21T12:46:15;100486.81;;;29.92;39.67
12963;BME280;6546;49.882;8.666;2023-08-21T12:48:43;100485.72;;;29.98;39.74
12963;BME280;6546;49.882;8.666;2023-08-21T12:51:09;100486.25;;;30.00;40.13
12963;BME280;6546;49.882;8.666;2023-08-21T12:53:36;100485.69;;;30.03;40.24
12963;BME280;6546;49.882;8.666;2023-08-21T12:56:03;100485.34;;;30.10;38.93
12963;BME280;6546;49.882;8.666;2023-08-21T12:58:30;100487.78;;;30.06;39.17
12963;BME280;6546;49.882;8.666;2023-08-21T13:00:58;100486.44;;;30.09;40.20